Terminal Aerodrome Forecast
Issued by NWS

Home | Current Version | Previous Version | Text Only | Print | Product List | Glossary On
Versions: 1 2 3 4 5 6 7 8 9 10 11 12 13 14
261
FTUS45 KRIW 232019 AAA
TAFLND
TAF AMD
KLND 232019Z 2320/2418 04011KT P6SM BKN015
     FM232100 04008KT 6SM -SHRA BKN020 OVC040
     FM240500 32006KT P6SM -SN BKN015
     FM241300 VRB03KT P6SM SCT008 BKN015
     FM241600 VRB04KT P6SM SCT040=

USA.gov is the U.S. government's official web portal to all federal, state and local government web resources and services.